sensor_id;sensor_type;location;lat;lon;timestamp;pressure;altitude;pressure_sealevel;temperature;humidity
60019;BME280;45870;42.528;26.740;2023-03-18T00:02:32;100255.06;;;13.82;36.32
60019;BME280;45870;42.528;26.740;2023-03-18T00:04:58;100237.75;;;14.00;34.99
60019;BME280;45870;42.528;26.740;2023-03-18T00:07:24;100248.72;;;13.25;36.96
60019;BME280;45870;42.528;26.740;2023-03-18T00:09:50;100250.16;;;13.96;35.45
60019;BME280;45870;42.528;26.740;2023-03-18T00:12:17;100250.84;;;13.75;36.18
60019;BME280;45870;42.528;26.740;2023-03-18T00:14:42;100243.19;;;14.00;35.19
60019;BME280;45870;42.528;26.740;2023-03-18T00:17:08;100247.63;;;14.34;34.50
60019;BME280;45870;42.528;26.740;2023-03-18T00:19:34;100240.66;;;14.38;34.16
60019;BME280;45870;42.528;26.740;2023-03-18T00:22:00;100235.63;;;14.47;33.61
60019;BME280;45870;42.528;26.740;2023-03-18T00:24:25;100079.47;;;13.21;34.23
60019;BME280;45870;42.528;26.740;2023-03-18T00:26:53;100233.72;;;14.02;34.32
60019;BME280;45870;42.528;26.740;2023-03-18T00:29:19;100240.66;;;14.55;33.15
60019;BME280;45870;42.528;26.740;2023-03-18T00:31:44;100171.78;;;12.57;35.63
60019;BME280;45870;42.528;26.740;2023-03-18T00:34:11;100219.53;;;12.16;38.31
60019;BME280;45870;42.528;26.740;2023-03-18T00:36:39;100223.41;;;12.32;36.72
60019;BME280;45870;42.528;26.740;2023-03-18T00:39:05;100221.13;;;12.82;36.29
60019;BME280;45870;42.528;26.740;2023-03-18T00:41:31;100216.78;;;13.56;35.24
60019;BME280;45870;42.528;26.740;2023-03-18T00:44:00;100206.75;;;13.68;34.48
60019;BME280;45870;42.528;26.740;2023-03-18T00:46:34;100214.81;;;13.79;34.58
60019;BME280;45870;42.528;26.740;2023-03-18T00:51:14;100208.66;;;13.56;34.05
60019;BME280;45870;42.528;26.740;2023-03-18T00:53:47;100214.47;;;13.76;33.76
60019;BME280;45870;42.528;26.740;2023-03-18T00:56:14;100209.44;;;13.68;33.99
60019;BME280;45870;42.528;26.740;2023-03-18T00:58:40;100206.88;;;13.61;34.02
60019;BME280;45870;42.528;26.740;2023-03-18T01:01:08;100205.91;;;13.67;34.38
60019;BME280;45870;42.528;26.740;2023-03-18T01:03:34;100197.50;;;13.69;34.35
60019;BME280;45870;42.528;26.740;2023-03-18T01:06:01;100203.38;;;13.77;34.06
60019;BME280;45870;42.528;26.740;2023-03-18T01:08:29;100202.84;;;13.92;33.73
60019;BME280;45870;42.528;26.740;2023-03-18T01:10:55;100181.50;;;13.67;33.33
60019;BME280;45870;42.528;26.740;2023-03-18T01:13:22;100159.06;;;13.43;32.88
60019;BME280;45870;42.528;26.740;2023-03-18T01:15:50;100201.22;;;14.08;32.46
60019;BME280;45870;42.528;26.740;2023-03-18T01:18:17;100202.81;;;13.75;32.90
60019;BME280;45870;42.528;26.740;2023-03-18T01:20:43;100199.28;;;14.03;32.40
60019;BME280;45870;42.528;26.740;2023-03-18T01:23:10;100202.81;;;14.20;31.94
60019;BME280;45870;42.528;26.740;2023-03-18T01:25:37;100197.78;;;13.95;32.25
60019;BME280;45870;42.528;26.740;2023-03-18T01:28:04;100191.50;;;14.57;31.39
60019;BME280;45870;42.528;26.740;2023-03-18T01:30:31;100136.44;;;14.28;30.95
60019;BME280;45870;42.528;26.740;2023-03-18T01:33:01;100193.72;;;13.98;31.79
60019;BME280;45870;42.528;26.740;2023-03-18T01:35:30;100130.09;;;12.69;33.53
60019;BME280;45870;42.528;26.740;2023-03-18T01:37:57;100180.59;;;12.29;35.11
60019;BME280;45870;42.528;26.740;2023-03-18T01:40:23;100136.44;;;12.98;32.90
60019;BME280;45870;42.528;26.740;2023-03-18T01:43:04;100190.53;;;13.44;32.36
60019;BME280;45870;42.528;26.740;2023-03-18T01:45:38;100181.16;;;14.25;30.55
60019;BME280;45870;42.528;26.740;2023-03-18T01:48:04;100193.31;;;13.61;31.60
60019;BME280;45870;42.528;26.740;2023-03-18T01:50:31;100159.31;;;12.44;32.43
60019;BME280;45870;42.528;26.740;2023-03-18T01:53:10;100182.16;;;12.94;32.71
60019;BME280;45870;42.528;26.740;2023-03-18T01:55:37;100193.56;;;13.60;30.93
60019;BME280;45870;42.528;26.740;2023-03-18T01:58:28;100186.13;;;12.45;33.24
60019;BME280;45870;42.528;26.740;2023-03-18T02:01:01;100187.69;;;12.00;33.01
60019;BME280;45870;42.528;26.740;2023-03-18T02:03:28;100156.38;;;11.63;33.55
60019;BME280;45870;42.528;26.740;2023-03-18T02:05:54;100122.81;;;11.70;33.50
60019;BME280;45870;42.528;26.740;2023-03-18T02:08:20;100197.81;;;11.09;34.38
60019;BME280;45870;42.528;26.740;2023-03-18T02:10:47;100164.59;;;12.50;32.68
60019;BME280;45870;42.528;26.740;2023-03-18T02:13:14;100168.13;;;10.47;35.17
60019;BME280;45870;42.528;26.740;2023-03-18T02:15:49;100122.28;;;11.62;33.01
60019;BME280;45870;42.528;26.740;2023-03-18T02:18:29;100175.66;;;10.64;35.81
60019;BME280;45870;42.528;26.740;2023-03-18T02:23:58;100183.19;;;13.05;31.65
60019;BME280;45870;42.528;26.740;2023-03-18T02:29:05;100187.75;;;13.28;30.64
60019;BME280;45870;42.528;26.740;2023-03-18T02:31:35;100191.81;;;12.90;31.48
60019;BME280;45870;42.528;26.740;2023-03-18T02:34:01;100200.53;;;12.05;32.50
60019;BME280;45870;42.528;26.740;2023-03-18T02:36:28;100195.28;;;12.21;32.75
60019;BME280;45870;42.528;26.740;2023-03-18T02:38:56;100191.13;;;11.95;32.68
60019;BME280;45870;42.528;26.740;2023-03-18T02:41:29;100189.91;;;12.68;32.64
60019;BME280;45870;42.528;26.740;2023-03-18T02:43:56;100189.44;;;12.82;31.25
60019;BME280;45870;42.528;26.740;2023-03-18T02:49:21;100203.50;;;12.03;32.83
60019;BME280;45870;42.528;26.740;2023-03-18T02:51:47;100206.66;;;12.12;32.82
60019;BME280;45870;42.528;26.740;2023-03-18T02:54:21;100200.97;;;12.89;31.48
60019;BME280;45870;42.528;26.740;2023-03-18T02:56:48;100209.00;;;13.59;30.30
60019;BME280;45870;42.528;26.740;2023-03-18T02:59:14;100183.97;;;13.40;30.36
60019;BME280;45870;42.528;26.740;2023-03-18T03:01:43;100221.53;;;13.48;30.08
60019;BME280;45870;42.528;26.740;2023-03-18T03:04:14;100222.63;;;13.36;30.62
60019;BME280;45870;42.528;26.740;2023-03-18T03:06:41;100214.06;;;13.16;31.00
60019;BME280;45870;42.528;26.740;2023-03-18T03:09:10;100216.66;;;13.22;31.39
60019;BME280;45870;42.528;26.740;2023-03-18T03:11:36;100204.28;;;12.57;32.02
60019;BME280;45870;42.528;26.740;2023-03-18T03:14:02;100211.19;;;11.88;32.16
60019;BME280;45870;42.528;26.740;2023-03-18T03:16:28;100170.16;;;11.91;32.00
60019;BME280;45870;42.528;26.740;2023-03-18T03:18:55;100213.84;;;12.06;31.84
60019;BME280;45870;42.528;26.740;2023-03-18T03:21:20;100206.28;;;11.12;34.03
60019;BME280;45870;42.528;26.740;2023-03-18T03:23:49;100205.78;;;11.70;32.39
60019;BME280;45870;42.528;26.740;2023-03-18T03:26:16;100215.03;;;11.14;34.04
60019;BME280;45870;42.528;26.740;2023-03-18T03:28:42;100202.94;;;9.62;35.55
60019;BME280;45870;42.528;26.740;2023-03-18T03:31:08;100214.34;;;9.13;36.70
60019;BME280;45870;42.528;26.740;2023-03-18T03:33:37;100212.41;;;9.77;36.50
60019;BME280;45870;42.528;26.740;2023-03-18T03:36:14;100195.94;;;9.92;35.96
60019;BME280;45870;42.528;26.740;2023-03-18T03:38:40;100182.41;;;9.98;35.26
60019;BME280;45870;42.528;26.740;2023-03-18T03:41:07;100211.41;;;11.38;33.33
60019;BME280;45870;42.528;26.740;2023-03-18T03:43:38;100206.03;;;10.77;33.60
60019;BME280;45870;42.528;26.740;2023-03-18T03:46:05;100193.19;;;10.97;32.95
60019;BME280;45870;42.528;26.740;2023-03-18T03:48:31;100202.13;;;11.64;32.53
60019;BME280;45870;42.528;26.740;2023-03-18T03:50:57;100192.75;;;10.58;33.93
60019;BME280;45870;42.528;26.740;2023-03-18T03:53:25;100201.81;;;11.24;33.53
60019;BME280;45870;42.528;26.740;2023-03-18T03:55:51;100204.31;;;10.15;35.74
60019;BME280;45870;42.528;26.740;2023-03-18T03:58:18;100203.16;;;9.98;35.70
60019;BME280;45870;42.528;26.740;2023-03-18T04:00:43;100201.06;;;9.24;37.19
60019;BME280;45870;42.528;26.740;2023-03-18T04:03:09;100174.72;;;8.42;38.69
60019;BME280;45870;42.528;26.740;2023-03-18T04:05:36;100202.22;;;9.41;36.77
60019;BME280;45870;42.528;26.740;2023-03-18T04:08:02;100207.38;;;9.49;36.99
60019;BME280;45870;42.528;26.740;2023-03-18T04:10:28;100189.91;;;9.14;37.75
60019;BME280;45870;42.528;26.740;2023-03-18T04:12:55;100200.69;;;9.59;37.10
60019;BME280;45870;42.528;26.740;2023-03-18T04:15:21;100200.84;;;9.70;36.36
60019;BME280;45870;42.528;26.740;2023-03-18T04:17:48;100206.75;;;8.96;37.93
60019;BME280;45870;42.528;26.740;2023-03-18T04:20:15;100218.06;;;9.18;37.21
60019;BME280;45870;42.528;26.740;2023-03-18T04:22:42;100202.66;;;8.61;38.48
60019;BME280;45870;42.528;26.740;2023-03-18T04:25:09;100208.47;;;8.58;38.36
60019;BME280;45870;42.528;26.740;2023-03-18T04:27:35;100206.78;;;8.11;39.43
60019;BME280;45870;42.528;26.740;2023-03-18T04:30:04;100210.81;;;7.68;40.16
60019;BME280;45870;42.528;26.740;2023-03-18T04:32:30;100209.50;;;8.31;38.89
60019;BME280;45870;42.528;26.740;2023-03-18T04:34:58;100184.03;;;8.60;38.17
60019;BME280;45870;42.528;26.740;2023-03-18T04:37:24;100183.00;;;8.61;37.61
60019;BME280;45870;42.528;26.740;2023-03-18T04:39:50;100217.53;;;8.77;38.42
60019;BME280;45870;42.528;26.740;2023-03-18T04:42:18;100218.34;;;9.48;36.55
60019;BME280;45870;42.528;26.740;2023-03-18T04:44:43;100200.66;;;10.34;34.88
60019;BME280;45870;42.528;26.740;2023-03-18T04:47:10;100212.53;;;10.51;34.27
60019;BME280;45870;42.528;26.740;2023-03-18T04:49:37;99998.06;;;8.17;36.19
60019;BME280;45870;42.528;26.740;2023-03-18T04:52:04;100205.91;;;10.23;35.19
60019;BME280;45870;42.528;26.740;2023-03-18T04:54:30;100211.78;;;10.13;35.64
60019;BME280;45870;42.528;26.740;2023-03-18T04:56:56;100213.94;;;11.33;32.50
60019;BME280;45870;42.528;26.740;2023-03-18T04:59:21;100218.25;;;11.89;31.46
60019;BME280;45870;42.528;26.740;2023-03-18T05:01:47;100218.66;;;11.56;32.44
60019;BME280;45870;42.528;26.740;2023-03-18T05:04:13;100201.25;;;12.12;31.02
60019;BME280;45870;42.528;26.740;2023-03-18T05:06:39;100224.53;;;11.35;32.67
60019;BME280;45870;42.528;26.740;2023-03-18T05:09:05;100229.31;;;10.29;36.29
60019;BME280;45870;42.528;26.740;2023-03-18T05:11:31;100231.88;;;9.79;36.89
60019;BME280;45870;42.528;26.740;2023-03-18T05:13:58;100207.66;;;11.03;34.19
60019;BME280;45870;42.528;26.740;2023-03-18T05:16:23;100222.69;;;11.83;32.90
60019;BME280;45870;42.528;26.740;2023-03-18T05:18:49;100227.59;;;12.69;32.28
60019;BME280;45870;42.528;26.740;2023-03-18T05:21:15;100214.41;;;12.84;32.24
60019;BME280;45870;42.528;26.740;2023-03-18T05:23:41;100210.28;;;12.70;31.93
60019;BME280;45870;42.528;26.740;2023-03-18T05:26:07;100166.94;;;12.47;31.86
60019;BME280;45870;42.528;26.740;2023-03-18T05:28:34;100234.94;;;13.15;32.00
60019;BME280;45870;42.528;26.740;2023-03-18T05:31:00;100192.84;;;12.89;31.05
60019;BME280;45870;42.528;26.740;2023-03-18T05:33:25;100224.88;;;13.27;30.17
60019;BME280;45870;42.528;26.740;2023-03-18T05:35:51;100239.38;;;12.86;30.74
60019;BME280;45870;42.528;26.740;2023-03-18T05:38:17;100240.81;;;13.00;29.88
60019;BME280;45870;42.528;26.740;2023-03-18T05:40:43;100187.53;;;11.17;31.80
60019;BME280;45870;42.528;26.740;2023-03-18T05:43:09;100240.38;;;11.49;32.04
60019;BME280;45870;42.528;26.740;2023-03-18T05:45:36;100241.91;;;12.23;30.56
60019;BME280;45870;42.528;26.740;2023-03-18T05:48:02;100247.16;;;12.07;30.18
60019;BME280;45870;42.528;26.740;2023-03-18T05:50:34;100247.88;;;13.25;28.70
60019;BME280;45870;42.528;26.740;2023-03-18T05:53:01;100252.69;;;13.86;28.38
60019;BME280;45870;42.528;26.740;2023-03-18T05:55:28;100262.38;;;14.72;26.76
60019;BME280;45870;42.528;26.740;2023-03-18T05:57:55;100251.75;;;13.40;28.68
60019;BME280;45870;42.528;26.740;2023-03-18T06:00:22;100248.31;;;15.30;26.96
60019;BME280;45870;42.528;26.740;2023-03-18T06:02:49;100255.88;;;15.44;26.69
60019;BME280;45870;42.528;26.740;2023-03-18T06:05:18;100256.34;;;15.41;25.98
60019;BME280;45870;42.528;26.740;2023-03-18T06:07:45;100258.78;;;15.81;25.97
60019;BME280;45870;42.528;26.740;2023-03-18T06:10:12;100257.53;;;15.67;25.70
60019;BME280;45870;42.528;26.740;2023-03-18T06:12:38;100226.75;;;13.78;28.06
60019;BME280;45870;42.528;26.740;2023-03-18T06:15:08;100255.22;;;15.37;26.92
60019;BME280;45870;42.528;26.740;2023-03-18T06:17:35;100212.78;;;13.86;26.71
60019;BME280;45870;42.528;26.740;2023-03-18T06:20:02;100260.28;;;14.00;27.84
60019;BME280;45870;42.528;26.740;2023-03-18T06:22:28;100249.88;;;14.87;25.75
60019;BME280;45870;42.528;26.740;2023-03-18T06:24:53;100251.81;;;15.09;25.54
60019;BME280;45870;42.528;26.740;2023-03-18T06:27:19;100247.78;;;12.20;28.75
60019;BME280;45870;42.528;26.740;2023-03-18T06:29:45;100251.28;;;12.62;28.81
60019;BME280;45870;42.528;26.740;2023-03-18T06:32:13;100259.53;;;11.12;28.46
60019;BME280;45870;42.528;26.740;2023-03-18T06:34:39;100255.91;;;11.72;29.50
60019;BME280;45870;42.528;26.740;2023-03-18T06:37:06;100235.34;;;11.35;29.75
60019;BME280;45870;42.528;26.740;2023-03-18T06:39:32;100255.66;;;13.21;26.49
60019;BME280;45870;42.528;26.740;2023-03-18T06:41:59;100252.66;;;13.46;26.49
60019;BME280;45870;42.528;26.740;2023-03-18T06:44:25;100207.31;;;12.95;28.38
60019;BME280;45870;42.528;26.740;2023-03-18T06:46:51;100253.97;;;14.57;25.58
60019;BME280;45870;42.528;26.740;2023-03-18T06:49:18;100238.81;;;11.42;27.63
60019;BME280;45870;42.528;26.740;2023-03-18T06:51:44;100214.66;;;12.83;26.83
60019;BME280;45870;42.528;26.740;2023-03-18T06:54:10;100262.22;;;12.79;26.94
60019;BME280;45870;42.528;26.740;2023-03-18T06:56:36;100265.94;;;12.01;27.25
60019;BME280;45870;42.528;26.740;2023-03-18T06:59:05;100257.06;;;13.24;26.70
60019;BME280;45870;42.528;26.740;2023-03-18T07:01:33;100242.94;;;14.01;25.83
60019;BME280;45870;42.528;26.740;2023-03-18T07:03:59;100227.16;;;13.87;24.50
60019;BME280;45870;42.528;26.740;2023-03-18T07:06:26;100215.06;;;14.06;25.78
60019;BME280;45870;42.528;26.740;2023-03-18T07:08:51;100255.28;;;12.71;26.08
60019;BME280;45870;42.528;26.740;2023-03-18T07:11:19;100198.88;;;12.80;25.21
60019;BME280;45870;42.528;26.740;2023-03-18T07:13:46;100219.56;;;11.98;26.63
60019;BME280;45870;42.528;26.740;2023-03-18T07:16:12;100167.78;;;12.71;25.68
60019;BME280;45870;42.528;26.740;2023-03-18T07:18:38;100202.72;;;12.49;26.97
60019;BME280;45870;42.528;26.740;2023-03-18T07:21:04;100236.31;;;13.06;25.44
60019;BME280;45870;42.528;26.740;2023-03-18T07:23:30;100228.31;;;13.23;26.52
60019;BME280;45870;42.528;26.740;2023-03-18T07:25:56;100232.16;;;12.45;27.32
60019;BME280;45870;42.528;26.740;2023-03-18T07:28:23;100217.25;;;11.53;27.74
60019;BME280;45870;42.528;26.740;2023-03-18T07:30:49;100238.44;;;14.07;25.63
60019;BME280;45870;42.528;26.740;2023-03-18T07:33:15;100252.72;;;14.02;24.83
60019;BME280;45870;42.528;26.740;2023-03-18T07:35:42;100213.09;;;12.64;26.32
60019;BME280;45870;42.528;26.740;2023-03-18T07:38:09;100240.09;;;13.05;27.01
60019;BME280;45870;42.528;26.740;2023-03-18T07:40:36;100247.41;;;12.70;25.73
60019;BME280;45870;42.528;26.740;2023-03-18T07:43:03;100240.28;;;14.85;24.28
60019;BME280;45870;42.528;26.740;2023-03-18T07:45:29;100252.25;;;14.50;25.09
60019;BME280;45870;42.528;26.740;2023-03-18T07:47:55;100252.09;;;12.63;27.60
60019;BME280;45870;42.528;26.740;2023-03-18T07:50:20;100240.13;;;13.96;25.62
60019;BME280;45870;42.528;26.740;2023-03-18T07:52:46;100241.50;;;15.71;24.44
60019;BME280;45870;42.528;26.740;2023-03-18T07:55:12;100223.19;;;14.51;23.39
60019;BME280;45870;42.528;26.740;2023-03-18T07:57:38;100238.69;;;15.87;22.52
60019;BME280;45870;42.528;26.740;2023-03-18T08:00:08;100243.38;;;16.19;23.98
60019;BME280;45870;42.528;26.740;2023-03-18T08:02:35;100247.75;;;14.56;25.08
60019;BME280;45870;42.528;26.740;2023-03-18T08:05:02;100227.00;;;12.56;25.54
60019;BME280;45870;42.528;26.740;2023-03-18T08:07:28;100244.09;;;14.84;24.52
60019;BME280;45870;42.528;26.740;2023-03-18T08:09:54;100248.34;;;15.13;23.10
60019;BME280;45870;42.528;26.740;2023-03-18T08:12:20;100255.63;;;14.58;23.12
60019;BME280;45870;42.528;26.740;2023-03-18T08:14:46;100223.19;;;14.68;23.91
60019;BME280;45870;42.528;26.740;2023-03-18T08:17:14;100238.69;;;15.61;22.96
60019;BME280;45870;42.528;26.740;2023-03-18T08:19:39;100108.72;;;14.09;24.07
60019;BME280;45870;42.528;26.740;2023-03-18T08:22:06;100234.81;;;15.57;23.81
60019;BME280;45870;42.528;26.740;2023-03-18T08:24:33;100240.03;;;15.85;23.19
60019;BME280;45870;42.528;26.740;2023-03-18T08:26:58;100231.44;;;15.93;24.11
60019;BME280;45870;42.528;26.740;2023-03-18T08:29:25;100230.50;;;15.82;26.12
60019;BME280;45870;42.528;26.740;2023-03-18T08:31:51;100222.63;;;17.08;23.55
60019;BME280;45870;42.528;26.740;2023-03-18T08:34:17;100235.94;;;15.82;22.27
60019;BME280;45870;42.528;26.740;2023-03-18T08:36:42;100226.56;;;15.73;23.53
60019;BME280;45870;42.528;26.740;2023-03-18T08:39:09;100242.81;;;13.05;27.17
60019;BME280;45870;42.528;26.740;2023-03-18T08:41:35;100221.03;;;13.12;28.60
60019;BME280;45870;42.528;26.740;2023-03-18T08:44:02;100241.72;;;12.71;27.55
60019;BME280;45870;42.528;26.740;2023-03-18T08:46:31;100244.94;;;13.66;28.10
60019;BME280;45870;42.528;26.740;2023-03-18T08:48:57;100039.34;;;12.95;26.18
60019;BME280;45870;42.528;26.740;2023-03-18T08:51:24;100238.13;;;13.64;27.48
60019;BME280;45870;42.528;26.740;2023-03-18T08:53:51;100244.94;;;12.80;27.90
60019;BME280;45870;42.528;26.740;2023-03-18T08:56:19;100242.16;;;13.49;25.97
60019;BME280;45870;42.528;26.740;2023-03-18T08:58:45;100223.97;;;13.22;26.54
60019;BME280;45870;42.528;26.740;2023-03-18T09:01:12;100242.31;;;12.85;28.86
60019;BME280;45870;42.528;26.740;2023-03-18T09:03:40;100238.56;;;14.00;26.50
60019;BME280;45870;42.528;26.740;2023-03-18T09:06:07;100250.28;;;13.61;27.06
60019;BME280;45870;42.528;26.740;2023-03-18T09:08:34;100240.47;;;13.72;27.61
60019;BME280;45870;42.528;26.740;2023-03-18T09:11:00;100256.50;;;13.62;26.99
60019;BME280;45870;42.528;26.740;2023-03-18T09:13:26;100245.56;;;13.68;26.89
60019;BME280;45870;42.528;26.740;2023-03-18T09:15:51;100205.94;;;12.58;27.85
60019;BME280;45870;42.528;26.740;2023-03-18T09:18:18;100207.00;;;14.11;28.57
60019;BME280;45870;42.528;26.740;2023-03-18T09:20:47;100215.09;;;13.03;28.52
60019;BME280;45870;42.528;26.740;2023-03-18T09:25:26;100231.56;;;14.49;27.06
60019;BME280;45870;42.528;26.740;2023-03-18T09:27:52;100221.00;;;15.63;25.70
60019;BME280;45870;42.528;26.740;2023-03-18T09:30:19;100232.88;;;13.34;27.19
60019;BME280;45870;42.528;26.740;2023-03-18T09:32:45;100215.81;;;15.40;25.46
60019;BME280;45870;42.528;26.740;2023-03-18T09:35:11;100216.97;;;14.22;27.91
60019;BME280;45870;42.528;26.740;2023-03-18T09:37:37;100223.44;;;14.83;26.95
60019;BME280;45870;42.528;26.740;2023-03-18T09:40:05;100205.38;;;14.27;27.58
60019;BME280;45870;42.528;26.740;2023-03-18T09:45:43;100224.00;;;15.45;26.60
60019;BME280;45870;42.528;26.740;2023-03-18T10:03:06;100216.56;;;14.97;26.12
60019;BME280;45870;42.528;26.740;2023-03-18T10:05:43;100213.22;;;14.90;25.68
60019;BME280;45870;42.528;26.740;2023-03-18T10:08:38;100214.31;;;15.49;27.26
60019;BME280;45870;42.528;26.740;2023-03-18T10:19:32;100207.66;;;15.40;25.47
60019;BME280;45870;42.528;26.740;2023-03-18T10:22:05;100193.22;;;15.83;27.25
60019;BME280;45870;42.528;26.740;2023-03-18T10:33:19;100201.63;;;15.38;25.68
60019;BME280;45870;42.528;26.740;2023-03-18T10:35:59;100180.97;;;15.85;26.57
60019;BME280;45870;42.528;26.740;2023-03-18T10:38:32;100173.19;;;14.19;26.39
60019;BME280;45870;42.528;26.740;2023-03-18T10:41:01;100182.00;;;14.09;26.25
60019;BME280;45870;42.528;26.740;2023-03-18T10:43:31;100191.56;;;14.95;26.56
60019;BME280;45870;42.528;26.740;2023-03-18T10:46:04;100173.94;;;16.16;27.01
60019;BME280;45870;42.528;26.740;2023-03-18T10:48:39;100172.25;;;14.96;27.58
60019;BME280;45870;42.528;26.740;2023-03-18T10:56:27;100182.81;;;14.10;27.50
60019;BME280;45870;42.528;26.740;2023-03-18T10:58:54;100160.31;;;14.59;27.73
60019;BME280;45870;42.528;26.740;2023-03-18T11:01:23;100155.38;;;14.56;27.94
60019;BME280;45870;42.528;26.740;2023-03-18T11:03:52;100160.75;;;13.89;27.45
60019;BME280;45870;42.528;26.740;2023-03-18T11:06:23;99943.91;;;15.50;25.65
60019;BME280;45870;42.528;26.740;2023-03-18T11:09:01;99962.41;;;14.29;26.74
60019;BME280;45870;42.528;26.740;2023-03-18T11:11:34;100163.66;;;15.70;24.85
60019;BME280;45870;42.528;26.740;2023-03-18T11:14:02;100148.66;;;16.21;25.44
60019;BME280;45870;42.528;26.740;2023-03-18T11:18:43;100148.41;;;14.82;26.45
60019;BME280;45870;42.528;26.740;2023-03-18T11:21:11;100136.78;;;17.26;26.83
60019;BME280;45870;42.528;26.740;2023-03-18T11:23:52;100129.34;;;16.64;24.63
60019;BME280;45870;42.528;26.740;2023-03-18T11:26:55;100135.47;;;14.34;27.79
60019;BME280;45870;42.528;26.740;2023-03-18T11:29:26;100130.94;;;14.39;26.25
60019;BME280;45870;42.528;26.740;2023-03-18T11:31:56;100125.84;;;15.68;26.09
60019;BME280;45870;42.528;26.740;2023-03-18T11:34:24;100126.78;;;16.47;24.42
60019;BME280;45870;42.528;26.740;2023-03-18T11:36:58;100120.84;;;14.73;26.56
60019;BME280;45870;42.528;26.740;2023-03-18T11:39:28;100136.50;;;15.05;24.67
60019;BME280;45870;42.528;26.740;2023-03-18T11:41:57;100127.44;;;15.21;26.47
60019;BME280;45870;42.528;26.740;2023-03-18T11:44:27;100133.03;;;15.79;24.17
60019;BME280;45870;42.528;26.740;2023-03-18T11:46:58;100110.41;;;15.52;25.41
60019;BME280;45870;42.528;26.740;2023-03-18T11:49:27;100112.72;;;14.95;27.26
60019;BME280;45870;42.528;26.740;2023-03-18T12:00:17;100106.50;;;15.96;25.89
60019;BME280;45870;42.528;26.740;2023-03-18T12:05:49;100116.56;;;17.22;23.93
60019;BME280;45870;42.528;26.740;2023-03-18T12:11:12;100111.00;;;16.49;23.23
60019;BME280;45870;42.528;26.740;2023-03-18T12:13:58;100117.19;;;15.76;24.98
60019;BME280;45870;42.528;26.740;2023-03-18T12:16:43;100109.69;;;17.04;23.32
60019;BME280;45870;42.528;26.740;2023-03-18T12:19:24;100109.22;;;16.33;25.42
60019;BME280;45870;42.528;26.740;2023-03-18T12:27:47;100095.84;;;14.55;26.72
60019;BME280;45870;42.528;26.740;2023-03-18T12:30:38;100094.03;;;15.25;25.88
60019;BME280;45870;42.528;26.740;2023-03-18T12:38:51;100105.03;;;16.53;25.99
60019;BME280;45870;42.528;26.740;2023-03-18T12:44:23;100097.66;;;15.84;26.18
60019;BME280;45870;42.528;26.740;2023-03-18T12:47:03;100099.91;;;15.39;24.91
60019;BME280;45870;42.528;26.740;2023-03-18T12:49:35;100085.88;;;16.42;24.27
60019;BME280;45870;42.528;26.740;2023-03-18T12:52:23;100081.56;;;16.46;22.67
60019;BME280;45870;42.528;26.740;2023-03-18T12:54:58;100092.63;;;17.39;23.26
60019;BME280;45870;42.528;26.740;2023-03-18T12:57:43;100095.97;;;16.84;24.36
60019;BME280;45870;42.528;26.740;2023-03-18T13:00:18;100094.06;;;18.37;24.64
60019;BME280;45870;42.528;26.740;2023-03-18T13:06:13;100080.72;;;18.01;22.49
60019;BME280;45870;42.528;26.740;2023-03-18T13:16:14;100095.94;;;15.73;25.56
60019;BME280;45870;42.528;26.740;2023-03-18T13:47:05;100069.34;;;15.54;25.47
60019;BME280;45870;42.528;26.740;2023-03-18T13:49:34;100070.25;;;16.28;23.68
60019;BME280;45870;42.528;26.740;2023-03-18T13:52:03;100071.19;;;16.48;24.79
60019;BME280;45870;42.528;26.740;2023-03-18T14:29:24;100036.50;;;15.92;26.87
60019;BME280;45870;42.528;26.740;2023-03-18T14:31:56;100076.34;;;15.71;27.28
60019;BME280;45870;42.528;26.740;2023-03-18T14:34:26;100057.03;;;16.46;25.35
60019;BME280;45870;42.528;26.740;2023-03-18T14:39:38;100066.75;;;15.42;27.34
60019;BME280;45870;42.528;26.740;2023-03-18T14:42:27;100063.72;;;15.60;27.36
60019;BME280;45870;42.528;26.740;2023-03-18T14:44:58;99887.94;;;14.25;27.24
60019;BME280;45870;42.528;26.740;2023-03-18T14:47:36;100059.25;;;15.81;26.60
60019;BME280;45870;42.528;26.740;2023-03-18T14:50:15;99915.63;;;14.92;26.68
60019;BME280;45870;42.528;26.740;2023-03-18T14:52:54;100061.41;;;16.11;26.66
60019;BME280;45870;42.528;26.740;2023-03-18T14:55:25;100065.16;;;16.41;26.45
60019;BME280;45870;42.528;26.740;2023-03-18T14:57:52;100072.63;;;15.56;27.40
60019;BME280;45870;42.528;26.740;2023-03-18T15:00:20;100072.75;;;14.95;28.98
60019;BME280;45870;42.528;26.740;2023-03-18T15:02:52;100011.75;;;14.43;29.52
60019;BME280;45870;42.528;26.740;2023-03-18T15:05:24;100011.44;;;15.05;29.38
60019;BME280;45870;42.528;26.740;2023-03-18T15:07:51;100062.97;;;15.43;29.77
60019;BME280;45870;42.528;26.740;2023-03-18T15:10:24;100065.94;;;14.93;29.58
60019;BME280;45870;42.528;26.740;2023-03-18T15:12:59;100070.94;;;14.24;30.09
60019;BME280;45870;42.528;26.740;2023-03-18T15:15:26;100068.13;;;14.53;29.92
60019;BME280;45870;42.528;26.740;2023-03-18T15:17:52;100068.56;;;15.10;28.49
60019;BME280;45870;42.528;26.740;2023-03-18T15:20:19;100076.22;;;14.69;29.32
60019;BME280;45870;42.528;26.740;2023-03-18T15:22:46;100036.84;;;14.72;29.53
60019;BME280;45870;42.528;26.740;2023-03-18T15:25:19;100056.03;;;14.43;29.42
60019;BME280;45870;42.528;26.740;2023-03-18T15:27:48;100080.81;;;13.97;30.68
60019;BME280;45870;42.528;26.740;2023-03-18T15:30:28;100087.41;;;14.01;31.17